Huailai, China
Current Conditions -  °F | °C
As of 11:30 PM on Thursday 23 Oct 2014 (Local Time) from ZBAA Reporting Station
Haze Haze  
Wind Chill: 48°   Ceiling: Unl
Heat Index: 48°   Visibility: 2.1mi
Dew Point: 46°   Wind: 2mph
Humidity: 93%   Direction: NA
Pressure: 29.88"   Gusts: NA
Location:  40.4°N, 115.5°E
Report Text: ZBAA 231530Z VRB01MPS 3500 R01/1200V1800DR36R/P2000NR36L/P2000N BR NSC 09/08 Q1012 NOSIG
Loading
Personal Weather Stations






























Interactive Weather Map
Tropical Storm Tracking
New forecast layout! Learn more

10-Day Weather Forecast

Advertisements
Track Severe Weather on mobile